Sarıyer, Turkey

3:45 PM EEST on August 25, 2016 (GMT +0300)
IU0130ST5 | | Change Station

Elev 390 ft 41.23 °N, 29.05 °E | Updated 5 minutes ago

Scattered Clouds
Scattered Clouds
74.1 °F
Feels Like 74 °F
N
21.0
Wind Variable Wind from North
Gusts 28.0 mph

Today
High -- | Low -- °F
--% Chance of Precip.
Yesterday
High -- | Low -- °F
Precip. -- in
Pressure 29.98 in
Visibility 6.2 miles
Clouds Scattered Clouds 2700 ft
Heat Index 74 °F
Dew Point 68 °F
Humidity 81%
Rainfall 0.09 in
Snow Depth Not available.
6:23 AM 7:47 PM
Last Quarter, 46% visible
METAR LTBA 251220Z 01019KT 350V050 9999 SCT027 28/19 Q1015 NOSIG RMK RWY17L 02019KT 360V060 RWY05 01022KT RWY23 02021KT 350V050
Pressure 29.98 in
Visibility 6.2 miles
Clouds Scattered Clouds 2700 ft
Heat Index 74 °F
Dew Point 68 °F
Humidity 81%
Rainfall 0.09 in
Snow Depth Not available.
6:23 AM 7:47 PM
Last Quarter, 46% visible
METAR LTBA 251220Z 01019KT 350V050 9999 SCT027 28/19 Q1015 NOSIG RMK RWY17L 02019KT 360V060 RWY05 01022KT RWY23 02021KT 350V050

10-Day Weather Forecast

×

Almanac

Astronomy

Aug. 25, 2016 Rise Set
Actual Time
Civil Twilight
Nautical Twilight
Astronomical Twilight
Moon
Length of Visible Light
Length of Day
Tomorrow will be .
, % of the Moon is Illuminated

Today's Extremes

Country Highs Country Lows

Community

WunderPhotos

Upload Photos

1,934,837 photos uploaded!

WunderBlog® & News

Nearby

Air Quality

  Air Quality AQ Index Pollutant
Not available.

Snow Depth

Station Depth Elevation

Earthquake Activity

City Distance Mag. Time & Date
Minimum magnitude displayed is 2.5.

Coastal Water Temperatures

Place Temperature

Stations

Nearby Weather Stations

Station Location Temp. Windchill Dew Point Humidity Wind Precip. Elev Updated Type